createdAt,value
2017-12-24T00:01:19.490Z,2.20
2017-12-24T00:03:46.984Z,2.53
2017-12-24T00:06:14.479Z,2.83
2017-12-24T00:08:42.005Z,2.17
2017-12-24T00:11:09.505Z,2.80
2017-12-24T00:13:37.797Z,3.20
2017-12-24T00:16:05.292Z,2.80
2017-12-24T00:18:32.816Z,3.10
2017-12-24T00:21:00.332Z,2.70
2017-12-24T00:23:27.836Z,3.07
2017-12-24T00:25:55.355Z,2.57
2017-12-24T00:28:22.884Z,1.80
2017-12-24T00:30:50.418Z,1.90
2017-12-24T00:33:17.914Z,2.43
2017-12-24T00:35:45.456Z,3.50
2017-12-24T00:38:12.963Z,2.00
2017-12-24T00:40:40.464Z,1.70
2017-12-24T00:43:07.981Z,1.73
2017-12-24T00:45:35.483Z,2.60
2017-12-24T00:48:03.122Z,2.30
2017-12-24T00:50:30.624Z,2.00
2017-12-24T00:52:58.132Z,2.07
2017-12-24T00:55:25.659Z,1.90
2017-12-24T00:57:53.922Z,1.60
2017-12-24T01:00:22.205Z,1.83
2017-12-24T01:02:50.508Z,1.40
2017-12-24T01:05:18.055Z,1.47
2017-12-24T01:07:45.554Z,1.40
2017-12-24T01:10:13.056Z,1.50
2017-12-24T01:12:41.356Z,1.60
2017-12-24T01:15:08.845Z,1.50
2017-12-24T01:17:36.367Z,1.37
2017-12-24T01:20:03.864Z,1.47
2017-12-24T01:22:31.385Z,1.90
2017-12-24T01:24:58.900Z,1.50
2017-12-24T01:27:26.495Z,1.70
2017-12-24T01:29:54.027Z,1.50
2017-12-24T01:32:22.303Z,1.77
2017-12-24T01:34:50.565Z,2.70
2017-12-24T01:37:18.096Z,1.70
2017-12-24T01:39:45.582Z,2.20
2017-12-24T01:42:13.116Z,1.60
2017-12-24T01:44:40.631Z,1.70
2017-12-24T01:47:08.124Z,1.57
2017-12-24T01:49:35.672Z,1.60
2017-12-24T01:52:03.170Z,1.50
2017-12-24T01:54:30.655Z,1.80
2017-12-24T01:56:58.175Z,1.60
2017-12-24T01:59:25.660Z,1.70
2017-12-24T02:01:53.199Z,1.57
2017-12-24T02:04:20.691Z,1.43
2017-12-24T02:06:48.227Z,2.90
2017-12-24T02:09:16.527Z,1.90
2017-12-24T02:11:44.020Z,1.30
2017-12-24T02:14:11.515Z,1.33
2017-12-24T02:16:39.796Z,1.47
2017-12-24T02:19:08.049Z,1.53
2017-12-24T02:21:35.568Z,1.30
2017-12-24T02:24:03.075Z,1.40
2017-12-24T02:26:30.606Z,1.33
2017-12-24T02:28:58.091Z,1.47
2017-12-24T02:31:25.584Z,1.20
2017-12-24T02:33:53.122Z,1.40
2017-12-24T02:36:21.385Z,1.50
2017-12-24T02:38:49.669Z,1.70
2017-12-24T02:41:17.949Z,1.67
2017-12-24T02:43:46.271Z,1.33
2017-12-24T02:46:13.776Z,1.47
2017-12-24T02:48:42.040Z,1.33
2017-12-24T02:51:09.547Z,1.23
2017-12-24T02:53:37.043Z,1.50
2017-12-24T02:56:04.555Z,1.97
2017-12-24T02:58:32.052Z,1.57
2017-12-24T03:00:59.567Z,1.30
2017-12-24T03:03:27.108Z,1.47
2017-12-24T03:05:55.368Z,1.33
2017-12-24T03:08:23.681Z,1.87
2017-12-24T03:10:51.177Z,1.53
2017-12-24T03:13:18.677Z,1.20
2017-12-24T03:15:46.200Z,1.20
2017-12-24T03:18:13.699Z,1.50
2017-12-24T03:20:41.228Z,1.40
2017-12-24T03:23:09.481Z,1.17
2017-12-24T03:25:36.967Z,1.50
2017-12-24T03:28:05.244Z,1.30
2017-12-24T03:30:33.506Z,1.60
2017-12-24T03:33:01.839Z,1.20
2017-12-24T03:35:29.321Z,1.60
2017-12-24T03:37:56.807Z,1.50
2017-12-24T03:40:25.145Z,1.30
2017-12-24T03:42:52.647Z,1.10
2017-12-24T03:45:20.909Z,1.13
2017-12-24T03:47:49.221Z,1.20
2017-12-24T03:50:16.716Z,1.30
2017-12-24T03:52:44.229Z,1.80
2017-12-24T03:55:11.734Z,1.40
2017-12-24T03:57:39.258Z,1.47
2017-12-24T04:00:06.739Z,1.20
2017-12-24T04:02:34.236Z,1.87
2017-12-24T04:05:02.531Z,1.90
2017-12-24T04:07:30.024Z,1.10
2017-12-24T04:09:57.558Z,1.43
2017-12-24T04:12:25.046Z,1.87
2017-12-24T04:14:52.604Z,1.67
2017-12-24T04:17:20.093Z,2.03
2017-12-24T04:19:47.589Z,1.40
2017-12-24T04:22:15.109Z,1.50
2017-12-24T04:24:43.364Z,1.23
2017-12-24T04:27:10.880Z,1.50
2017-12-24T04:29:38.376Z,1.13
2017-12-24T04:32:05.880Z,1.37
2017-12-24T04:34:34.352Z,1.30
2017-12-24T04:37:01.845Z,1.30
2017-12-24T04:39:29.375Z,1.47
2017-12-24T04:41:56.895Z,2.90
2017-12-24T04:44:25.154Z,1.70
2017-12-24T04:46:52.665Z,1.50
2017-12-24T04:49:20.168Z,1.40
2017-12-24T04:51:47.716Z,1.70
2017-12-24T04:54:15.204Z,2.00
2017-12-24T04:56:43.465Z,1.23
2017-12-24T04:59:10.988Z,1.67
2017-12-24T05:01:38.472Z,1.40
2017-12-24T05:04:05.992Z,1.20
2017-12-24T05:06:33.492Z,1.50
2017-12-24T05:09:00.972Z,1.20
2017-12-24T05:11:29.247Z,1.67
2017-12-24T05:13:57.515Z,1.30
2017-12-24T05:16:25.044Z,1.50
2017-12-24T05:18:52.539Z,1.43
2017-12-24T05:21:20.032Z,1.30
2017-12-24T05:23:47.548Z,1.20
2017-12-24T05:26:15.039Z,1.43
2017-12-24T05:28:42.612Z,1.20
2017-12-24T05:31:10.072Z,1.13
2017-12-24T05:33:37.592Z,1.47
2017-12-24T05:36:05.878Z,1.47
2017-12-24T05:38:33.389Z,1.43
2017-12-24T05:41:00.906Z,1.40
2017-12-24T05:43:28.392Z,1.20
2017-12-24T05:45:55.887Z,1.50
2017-12-24T05:48:24.166Z,1.60
2017-12-24T05:50:52.452Z,1.37
2017-12-24T05:53:19.993Z,1.40
2017-12-24T05:55:48.244Z,1.57
2017-12-24T05:58:16.231Z,1.30
2017-12-24T06:00:44.489Z,1.67
2017-12-24T06:03:11.976Z,2.50
2017-12-24T06:05:40.260Z,1.40
2017-12-24T06:08:07.753Z,1.83
2017-12-24T06:10:35.274Z,1.70
2017-12-24T06:13:02.772Z,1.87
2017-12-24T06:15:30.330Z,1.90
2017-12-24T06:17:57.816Z,1.63
2017-12-24T06:20:25.312Z,1.30
2017-12-24T06:22:52.848Z,1.60
2017-12-24T06:25:21.120Z,1.57
2017-12-24T06:27:49.391Z,1.50
2017-12-24T06:30:17.670Z,1.60
2017-12-24T06:32:45.964Z,1.40
2017-12-24T06:35:13.480Z,1.40
2017-12-24T06:37:40.976Z,1.33
2017-12-24T06:40:08.522Z,1.70
2017-12-24T06:42:36.775Z,1.70
2017-12-24T06:45:04.276Z,1.40
2017-12-24T06:47:31.811Z,1.57
2017-12-24T06:50:00.076Z,1.50
2017-12-24T06:52:28.342Z,1.60
2017-12-24T06:54:55.858Z,2.23
2017-12-24T06:57:23.349Z,1.17
2017-12-24T06:59:50.861Z,1.60
2017-12-24T07:02:18.351Z,1.53
2017-12-24T07:04:45.870Z,1.20
2017-12-24T07:07:13.384Z,1.40
2017-12-24T07:09:40.989Z,1.63
2017-12-24T07:12:08.499Z,1.17
2017-12-24T07:14:35.997Z,1.70
2017-12-24T07:17:03.525Z,1.17
2017-12-24T07:19:31.040Z,2.03
2017-12-24T07:21:58.521Z,1.90
2017-12-24T07:24:26.037Z,2.67
2017-12-24T07:26:53.548Z,1.47
2017-12-24T07:29:21.084Z,1.20
2017-12-24T07:31:48.584Z,1.10
2017-12-24T07:34:16.885Z,1.50
2017-12-24T07:36:44.386Z,1.20
2017-12-24T07:39:11.888Z,1.23
2017-12-24T07:41:39.399Z,1.30
2017-12-24T07:44:06.893Z,1.23
2017-12-24T07:46:34.416Z,1.10
2017-12-24T07:49:01.924Z,1.50
2017-12-24T07:51:29.416Z,1.47
2017-12-24T07:53:58.559Z,1.57
2017-12-24T07:56:26.814Z,1.50
2017-12-24T07:58:54.348Z,1.40
2017-12-24T08:01:21.842Z,3.00
2017-12-24T08:03:50.111Z,2.57
2017-12-24T08:06:18.405Z,1.60
2017-12-24T08:08:45.904Z,1.50
2017-12-24T08:11:13.433Z,1.67
2017-12-24T08:13:40.925Z,1.93
2017-12-24T08:16:08.413Z,1.93
2017-12-24T08:18:36.716Z,1.93
2017-12-24T08:21:04.220Z,1.70
2017-12-24T08:23:31.737Z,1.60
2017-12-24T08:25:59.238Z,1.80
2017-12-24T08:28:26.752Z,1.70
2017-12-24T08:30:54.261Z,1.60
2017-12-24T08:33:21.757Z,1.67
2017-12-24T08:35:49.269Z,2.00
2017-12-24T08:38:16.775Z,1.93
2017-12-24T08:40:44.289Z,1.50
2017-12-24T08:43:11.840Z,1.50
2017-12-24T08:45:39.328Z,1.53
2017-12-24T08:48:07.617Z,1.57
2017-12-24T08:50:35.133Z,1.40
2017-12-24T08:53:02.684Z,1.70
2017-12-24T08:55:30.207Z,1.47
2017-12-24T08:57:57.779Z,1.40
2017-12-24T09:00:25.299Z,1.43
2017-12-24T09:02:53.580Z,1.10
2017-12-24T09:05:21.909Z,1.10
2017-12-24T09:07:49.396Z,1.40
2017-12-24T09:10:17.825Z,1.10
2017-12-24T09:12:45.412Z,1.00
2017-12-24T09:15:12.930Z,1.50
2017-12-24T09:17:40.425Z,2.10
2017-12-24T09:20:07.964Z,1.90
2017-12-24T09:22:35.456Z,1.20
2017-12-24T09:25:03.007Z,1.20
2017-12-24T09:27:30.501Z,1.30
2017-12-24T09:29:58.029Z,1.80
2017-12-24T09:32:25.541Z,3.90
2017-12-24T09:34:53.052Z,1.20
2017-12-24T09:37:21.360Z,1.10
2017-12-24T09:39:48.927Z,1.20
2017-12-24T09:42:16.424Z,1.33
2017-12-24T09:44:43.916Z,1.00
2017-12-24T09:47:12.200Z,1.20
2017-12-24T09:49:39.685Z,1.90
2017-12-24T09:52:07.283Z,1.30
2017-12-24T09:54:34.810Z,1.27
2017-12-24T09:57:02.334Z,1.60
2017-12-24T09:59:29.869Z,1.40
2017-12-24T10:01:58.220Z,1.87
2017-12-24T10:04:25.715Z,1.10
2017-12-24T10:06:53.992Z,1.20
2017-12-24T10:09:21.543Z,1.40
2017-12-24T10:11:49.830Z,1.20
2017-12-24T10:14:17.343Z,1.03
2017-12-24T10:16:44.866Z,1.10
2017-12-24T10:19:12.368Z,1.13
2017-12-24T10:21:40.656Z,1.10
2017-12-24T10:24:08.931Z,1.10
2017-12-24T10:26:37.338Z,1.30
2017-12-24T10:29:04.868Z,1.23
2017-12-24T10:31:33.140Z,2.30
2017-12-24T10:34:01.434Z,1.10
2017-12-24T10:36:29.702Z,1.40
2017-12-24T10:38:57.988Z,1.47
2017-12-24T10:41:25.499Z,1.97
2017-12-24T10:43:53.033Z,1.67
2017-12-24T10:46:20.538Z,1.40
2017-12-24T10:48:48.836Z,1.30
2017-12-24T10:51:16.362Z,1.70
2017-12-24T10:53:43.876Z,1.70
2017-12-24T10:56:11.388Z,1.47
2017-12-24T10:58:39.749Z,1.50
2017-12-24T11:01:07.281Z,1.13
2017-12-24T11:03:34.814Z,1.60
2017-12-24T11:06:02.324Z,1.63
2017-12-24T11:08:29.929Z,1.33
2017-12-24T11:10:57.502Z,1.37
2017-12-24T11:13:25.027Z,1.20
2017-12-24T11:15:52.554Z,1.10
2017-12-24T11:18:20.066Z,1.30
2017-12-24T11:20:47.565Z,1.43
2017-12-24T11:23:15.082Z,1.10
2017-12-24T11:25:42.596Z,1.30
2017-12-24T11:28:10.088Z,1.40
2017-12-24T11:30:37.664Z,3.37
2017-12-24T11:33:05.893Z,2.60
2017-12-24T11:35:34.180Z,1.37
2017-12-24T11:38:02.478Z,1.17
2017-12-24T11:40:29.972Z,1.00
2017-12-24T11:42:57.508Z,1.37
2017-12-24T11:45:25.038Z,1.30
2017-12-24T11:47:52.557Z,1.30
2017-12-24T11:50:20.060Z,1.50
2017-12-24T11:52:47.583Z,1.63
2017-12-24T11:55:15.845Z,2.60
2017-12-24T11:57:43.372Z,1.03
2017-12-24T12:00:10.871Z,1.10
2017-12-24T12:02:38.369Z,1.03
2017-12-24T12:05:05.885Z,1.00
2017-12-24T12:07:34.160Z,1.20
2017-12-24T12:10:02.452Z,1.10
2017-12-24T12:12:30.714Z,1.07
2017-12-24T12:14:59.017Z,1.50
2017-12-24T12:17:26.548Z,1.17
2017-12-24T12:19:54.040Z,1.40
2017-12-24T12:22:21.563Z,1.53
2017-12-24T12:24:49.840Z,1.13
2017-12-24T12:27:18.157Z,1.67
2017-12-24T12:29:45.666Z,1.50
2017-12-24T12:32:13.167Z,4.13
2017-12-24T12:34:40.696Z,2.57
2017-12-24T12:37:08.975Z,1.50
2017-12-24T12:39:37.268Z,1.60
2017-12-24T12:42:04.764Z,1.43
2017-12-24T12:44:32.296Z,1.77
2017-12-24T12:46:59.809Z,1.30
2017-12-24T12:49:27.353Z,1.70
2017-12-24T12:51:54.847Z,1.30
2017-12-24T12:54:22.354Z,1.20
2017-12-24T12:56:49.864Z,1.40
2017-12-24T12:59:17.356Z,1.50
2017-12-24T13:01:44.909Z,1.20
2017-12-24T13:04:12.404Z,2.60
2017-12-24T13:06:39.927Z,1.70
2017-12-24T13:09:07.425Z,3.50
2017-12-24T13:11:34.930Z,1.20
2017-12-24T13:14:02.444Z,1.10
2017-12-24T13:16:30.745Z,1.10
2017-12-24T13:18:58.293Z,1.27
2017-12-24T13:21:26.576Z,1.27
2017-12-24T13:23:54.091Z,1.27
2017-12-24T13:26:21.618Z,1.10
2017-12-24T13:28:49.112Z,1.10
2017-12-24T13:31:16.620Z,1.10
2017-12-24T13:33:44.141Z,1.30
2017-12-24T13:36:12.424Z,1.40
2017-12-24T13:38:40.729Z,1.30
2017-12-24T13:41:08.259Z,1.10
2017-12-24T13:43:36.516Z,1.40
2017-12-24T13:46:04.021Z,1.40
2017-12-24T13:48:31.587Z,2.37
2017-12-24T13:50:59.089Z,1.80
2017-12-24T13:53:27.358Z,2.20
2017-12-24T13:55:54.913Z,2.50
2017-12-24T13:58:23.233Z,3.03
2017-12-24T14:00:50.787Z,3.57
2017-12-24T14:03:18.292Z,2.40
2017-12-24T14:05:45.813Z,2.40
2017-12-24T14:08:13.336Z,2.30
2017-12-24T14:10:41.603Z,2.77
2017-12-24T14:13:09.143Z,2.53
2017-12-24T14:15:36.660Z,2.73
2017-12-24T14:18:04.172Z,2.60
2017-12-24T14:20:31.695Z,2.53
2017-12-24T14:22:59.204Z,2.50
2017-12-24T14:25:27.514Z,2.00
2017-12-24T14:27:55.023Z,2.10
2017-12-24T14:30:22.534Z,3.43
2017-12-24T14:32:50.043Z,3.40
2017-12-24T14:35:17.545Z,2.17
2017-12-24T14:37:45.076Z,2.33
2017-12-24T14:40:12.586Z,2.60
2017-12-24T14:42:40.968Z,1.83
2017-12-24T14:45:08.483Z,1.80
2017-12-24T14:47:36.082Z,2.67
2017-12-24T14:50:03.576Z,1.60
2017-12-24T14:52:31.848Z,1.80
2017-12-24T14:55:00.139Z,2.90
2017-12-24T14:57:28.396Z,2.23
2017-12-24T14:59:56.699Z,2.30
2017-12-24T15:02:24.191Z,1.50
2017-12-24T15:04:51.697Z,1.80
2017-12-24T15:07:19.996Z,2.40
2017-12-24T15:09:47.516Z,2.03
2017-12-24T15:12:15.045Z,2.30
2017-12-24T15:14:42.576Z,2.70
2017-12-24T15:17:10.122Z,2.00
2017-12-24T15:19:37.616Z,2.33
2017-12-24T15:22:05.128Z,3.00
2017-12-24T15:24:32.662Z,2.57
2017-12-24T15:27:00.172Z,2.20
2017-12-24T15:29:27.659Z,2.10
2017-12-24T15:31:55.209Z,2.40
2017-12-24T15:34:22.715Z,3.13
2017-12-24T15:36:50.240Z,2.40
2017-12-24T15:39:17.749Z,2.60
2017-12-24T15:41:45.240Z,2.33
2017-12-24T15:44:12.754Z,2.03
2017-12-24T15:46:40.248Z,2.00
2017-12-24T15:49:07.796Z,2.03
2017-12-24T15:51:35.312Z,1.97
2017-12-24T15:54:03.572Z,1.50
2017-12-24T15:56:31.111Z,1.50
2017-12-24T15:58:58.616Z,2.13
2017-12-24T16:01:26.154Z,1.47
2017-12-24T16:03:53.684Z,1.50
2017-12-24T16:06:21.200Z,1.37
2017-12-24T16:08:48.702Z,2.73
2017-12-24T16:11:16.224Z,1.30
2017-12-24T16:13:43.744Z,3.30
2017-12-24T16:16:12.000Z,1.60
2017-12-24T16:18:39.506Z,1.73
2017-12-24T16:21:07.014Z,1.83
2017-12-24T16:23:35.236Z,2.73
2017-12-24T16:26:02.763Z,1.63
2017-12-24T16:28:31.032Z,2.10
2017-12-24T16:30:59.321Z,2.87
2017-12-24T16:33:26.829Z,1.70
2017-12-24T16:35:54.339Z,3.23
2017-12-24T16:38:21.856Z,4.40
2017-12-24T16:40:49.356Z,3.80
2017-12-24T16:43:16.889Z,2.20
2017-12-24T16:45:44.401Z,1.57
2017-12-24T16:48:11.919Z,1.30
2017-12-24T16:50:40.186Z,1.87
2017-12-24T16:53:08.504Z,1.40
2017-12-24T16:55:36.012Z,1.20
2017-12-24T16:58:04.305Z,1.40
2017-12-24T17:00:32.608Z,1.50
2017-12-24T17:03:00.113Z,1.23
2017-12-24T17:05:27.645Z,1.30
2017-12-24T17:07:55.157Z,1.60
2017-12-24T17:10:22.677Z,3.07
2017-12-24T17:12:50.203Z,1.60
2017-12-24T17:15:17.739Z,1.30
2017-12-24T17:17:45.231Z,1.50
2017-12-24T17:20:12.751Z,1.10
2017-12-24T17:22:40.280Z,1.60
2017-12-24T17:25:07.773Z,2.10
2017-12-24T17:27:35.876Z,2.70
2017-12-24T17:30:03.377Z,2.20
2017-12-24T17:32:31.668Z,2.30
2017-12-24T17:34:59.179Z,4.87
2017-12-24T17:37:26.709Z,2.23
2017-12-24T17:39:54.212Z,2.20
2017-12-24T17:42:21.820Z,1.30
2017-12-24T17:44:49.335Z,1.57
2017-12-24T17:47:17.610Z,1.20
2017-12-24T17:49:45.912Z,1.30
2017-12-24T17:52:13.410Z,1.30
2017-12-24T17:54:40.989Z,1.50
2017-12-24T17:57:08.492Z,1.67
2017-12-24T17:59:35.994Z,1.80
2017-12-24T18:02:04.324Z,2.03
2017-12-24T18:04:31.846Z,1.73
2017-12-24T18:06:59.367Z,1.40
2017-12-24T18:09:26.869Z,1.80
2017-12-24T18:11:55.149Z,1.87
2017-12-24T18:14:23.424Z,2.60
2017-12-24T18:16:50.972Z,3.10
2017-12-24T18:19:18.467Z,2.20
2017-12-24T18:21:45.965Z,3.27
2017-12-24T18:24:13.490Z,2.20
2017-12-24T18:26:40.976Z,2.23
2017-12-24T18:29:08.513Z,2.50
2017-12-24T18:31:36.011Z,3.20
2017-12-24T18:34:04.287Z,2.27
2017-12-24T18:36:31.824Z,2.50
2017-12-24T18:38:59.318Z,3.50
2017-12-24T18:41:27.580Z,3.27
2017-12-24T18:43:55.866Z,2.70
2017-12-24T18:46:24.151Z,2.70
2017-12-24T18:48:52.408Z,2.50
2017-12-24T18:51:19.901Z,2.70
2017-12-24T18:53:47.435Z,3.00
2017-12-24T18:56:15.702Z,2.50
2017-12-24T18:58:43.965Z,2.70
2017-12-24T19:01:11.492Z,2.73
2017-12-24T19:03:39.008Z,2.03
2017-12-24T19:06:06.548Z,5.93
2017-12-24T19:08:34.809Z,1.50
2017-12-24T19:11:02.331Z,2.03
2017-12-24T19:13:29.833Z,2.07
2017-12-24T19:15:57.363Z,1.53
2017-12-24T19:18:24.882Z,3.83
2017-12-24T19:20:52.398Z,2.07
2017-12-24T19:23:19.909Z,2.17
2017-12-24T19:25:47.412Z,2.30
2017-12-24T19:28:14.979Z,2.63
2017-12-24T19:30:42.519Z,3.27
2017-12-24T19:33:10.009Z,2.50
2017-12-24T19:35:38.262Z,2.23
2017-12-24T19:38:05.789Z,1.90
2017-12-24T19:40:33.280Z,2.80
2017-12-24T19:43:00.809Z,2.97
2017-12-24T19:45:28.309Z,2.67
2017-12-24T19:47:56.603Z,2.53
2017-12-24T19:50:24.172Z,2.37
2017-12-24T19:52:51.673Z,2.63
2017-12-24T19:55:19.197Z,2.50
2017-12-24T19:57:46.710Z,2.67
2017-12-24T20:00:14.288Z,2.77
2017-12-24T20:02:41.817Z,2.37
2017-12-24T20:05:09.326Z,3.30
2017-12-24T20:07:36.873Z,2.43
2017-12-24T20:10:04.377Z,3.23
2017-12-24T20:12:31.898Z,2.37
2017-12-24T20:14:59.412Z,4.70
2017-12-24T20:17:27.702Z,3.27
2017-12-24T20:19:55.968Z,2.90
2017-12-24T20:22:24.266Z,3.03
2017-12-24T20:24:51.763Z,2.37
2017-12-24T20:27:19.297Z,2.63
2017-12-24T20:29:46.828Z,3.27
2017-12-24T20:32:15.106Z,3.67
2017-12-24T20:34:42.628Z,3.73
2017-12-24T20:37:10.124Z,4.90
2017-12-24T20:39:37.664Z,5.13
2017-12-24T20:42:05.926Z,5.00
2017-12-24T20:44:33.441Z,5.27
2017-12-24T20:47:00.971Z,4.70
2017-12-24T20:49:28.464Z,5.30
2017-12-24T20:51:56.004Z,5.00
2017-12-24T20:54:23.552Z,5.93
2017-12-24T20:56:51.073Z,4.97
2017-12-24T20:59:18.608Z,5.63
2017-12-24T21:01:46.120Z,6.03
2017-12-24T21:04:13.632Z,5.20
2017-12-24T21:06:41.119Z,6.57
2017-12-24T21:09:09.418Z,5.60
2017-12-24T21:11:36.960Z,5.30
2017-12-24T21:14:05.236Z,4.40
2017-12-24T21:16:33.511Z,3.10
2017-12-24T21:19:01.780Z,4.20
2017-12-24T21:21:30.051Z,4.37
2017-12-24T21:23:58.312Z,4.13
2017-12-24T21:26:25.910Z,3.77
2017-12-24T21:28:53.464Z,3.90
2017-12-24T21:31:20.964Z,3.90
2017-12-24T21:33:48.472Z,4.53
2017-12-24T21:36:15.991Z,4.60
2017-12-24T21:38:43.485Z,4.30
2017-12-24T21:41:11.012Z,3.13
2017-12-24T21:43:38.493Z,4.07
2017-12-24T21:46:06.778Z,3.43
2017-12-24T21:48:34.283Z,3.20
2017-12-24T21:51:01.836Z,3.47
2017-12-24T21:53:29.365Z,2.90
2017-12-24T21:55:56.871Z,3.83
2017-12-24T21:58:24.399Z,3.27
2017-12-24T22:00:51.903Z,3.03
2017-12-24T22:03:20.214Z,2.80
2017-12-24T22:05:47.728Z,3.10
2017-12-24T22:08:15.220Z,4.10
2017-12-24T22:10:42.902Z,3.37
2017-12-24T22:13:10.388Z,4.40
2017-12-24T22:15:37.887Z,3.90
2017-12-24T22:18:05.409Z,4.60
2017-12-24T22:20:32.917Z,3.63
2017-12-24T22:23:00.474Z,3.33
2017-12-24T22:25:27.987Z,3.87
2017-12-24T22:27:55.500Z,3.23
2017-12-24T22:30:23.036Z,3.20
2017-12-24T22:32:50.603Z,3.27
2017-12-24T22:35:18.133Z,3.27
2017-12-24T22:37:46.400Z,3.30
2017-12-24T22:40:13.893Z,3.77
2017-12-24T22:42:41.440Z,3.50
2017-12-24T22:45:08.958Z,4.10
2017-12-24T22:47:37.232Z,3.87
2017-12-24T22:50:04.753Z,3.33
2017-12-24T22:52:32.276Z,3.47
2017-12-24T22:55:00.548Z,4.30
2017-12-24T22:57:28.881Z,4.20
2017-12-24T22:59:56.387Z,4.20
2017-12-24T23:02:24.693Z,2.83
2017-12-24T23:04:52.180Z,3.43
2017-12-24T23:07:19.696Z,3.50
2017-12-24T23:09:47.239Z,4.13
2017-12-24T23:12:15.502Z,3.80
2017-12-24T23:14:43.775Z,3.90
2017-12-24T23:17:11.300Z,3.70
2017-12-24T23:19:38.799Z,4.27
2017-12-24T23:22:07.079Z,5.27
2017-12-24T23:24:35.349Z,2.87
2017-12-24T23:27:03.672Z,2.90
2017-12-24T23:29:31.179Z,3.40
2017-12-24T23:31:59.480Z,4.10
2017-12-24T23:34:26.968Z,4.13
2017-12-24T23:36:54.467Z,3.30
2017-12-24T23:39:22.006Z,3.43
2017-12-24T23:41:49.516Z,4.03
2017-12-24T23:44:17.004Z,4.03
2017-12-24T23:46:44.508Z,4.10
2017-12-24T23:49:12.765Z,3.27
2017-12-24T23:51:40.295Z,4.00
2017-12-24T23:54:07.787Z,3.37
2017-12-24T23:56:36.039Z,3.37
2017-12-24T23:59:05.058Z,3.57
